createdAt,value
2022-12-31T14:20:06.815Z,17.65
2022-12-31T14:23:00.270Z,17.22
2022-12-31T14:25:33.024Z,16.79
2022-12-31T14:28:03.040Z,16.68
2022-12-31T14:30:34.132Z,16.59
2022-12-31T14:33:25.454Z,16.46
2022-12-31T14:36:09.992Z,16.59
2022-12-31T14:38:52.544Z,16.26
2022-12-31T14:41:39.119Z,16.09
2022-12-31T14:44:26.893Z,15.97
2022-12-31T14:47:07.453Z,15.86
2022-12-31T14:49:33.831Z,15.80
2022-12-31T14:52:21.360Z,15.85
2022-12-31T14:55:09.700Z,15.74
2022-12-31T14:58:17.225Z,15.72
2022-12-31T15:00:39.803Z,15.68
2022-12-31T15:03:34.574Z,15.70
2022-12-31T15:06:18.988Z,15.67
2022-12-31T15:08:59.945Z,15.68
2022-12-31T15:11:46.038Z,15.88
2022-12-31T15:14:24.616Z,15.96
2022-12-31T15:17:10.769Z,15.97
2022-12-31T15:19:56.368Z,15.92
2022-12-31T15:22:46.394Z,15.94
2022-12-31T15:25:38.452Z,16.01
2022-12-31T15:28:22.821Z,16.03
2022-12-31T15:30:50.568Z,16.12
2022-12-31T15:33:21.872Z,16.08
2022-12-31T15:35:51.556Z,16.06
2022-12-31T15:38:30.145Z,16.00
2022-12-31T15:40:57.106Z,16.04
2022-12-31T15:43:33.726Z,16.00
2022-12-31T15:46:01.847Z,15.99
2022-12-31T15:48:41.731Z,15.96
2022-12-31T15:51:15.565Z,15.93
2022-12-31T15:53:46.940Z,15.90
2022-12-31T15:56:22.387Z,15.93
2022-12-31T15:58:54.618Z,15.96
2022-12-31T16:01:24.214Z,16.05
2022-12-31T16:04:06.888Z,15.96
2022-12-31T16:06:37.435Z,16.00
2022-12-31T16:09:08.640Z,16.01
2022-12-31T16:11:41.778Z,15.96
2022-12-31T16:14:26.552Z,15.91
2022-12-31T16:16:58.731Z,16.06
2022-12-31T16:19:28.385Z,16.12
2022-12-31T16:21:57.065Z,16.06
2022-12-31T16:24:37.474Z,16.12
2022-12-31T16:27:16.817Z,16.05
2022-12-31T16:29:52.252Z,15.97
2022-12-31T16:32:22.081Z,15.99
2022-12-31T16:34:48.700Z,16.03
2022-12-31T16:37:20.681Z,16.04
2022-12-31T16:39:56.734Z,16.03
2022-12-31T16:42:28.615Z,16.05
2022-12-31T16:44:57.463Z,16.04
2022-12-31T16:47:36.224Z,16.06
2022-12-31T16:50:08.038Z,16.03
2022-12-31T16:52:40.960Z,16.06
2022-12-31T16:55:10.208Z,16.11
2022-12-31T16:57:37.344Z,16.21
2022-12-31T17:00:06.843Z,16.20
2022-12-31T17:02:44.014Z,16.14
2022-12-31T17:05:22.296Z,16.24
2022-12-31T17:07:49.127Z,16.19
2022-12-31T17:10:15.553Z,16.20
2022-12-31T17:13:25.593Z,16.18
2022-12-31T17:15:41.195Z,16.19
2022-12-31T17:18:08.287Z,16.21
2022-12-31T17:20:35.020Z,16.10
2022-12-31T17:23:05.667Z,16.19
2022-12-31T17:25:35.968Z,16.19
2022-12-31T17:28:05.456Z,16.27
2022-12-31T17:30:40.083Z,16.27
2022-12-31T17:33:12.440Z,16.27
2022-12-31T17:35:43.673Z,16.29
2022-12-31T17:38:22.553Z,16.39
2022-12-31T17:40:52.833Z,16.40
2022-12-31T17:43:22.212Z,16.45
2022-12-31T17:45:51.390Z,16.43
2022-12-31T17:48:20.307Z,16.53
2022-12-31T17:50:48.976Z,16.50
2022-12-31T17:53:16.175Z,16.44
2022-12-31T17:55:48.075Z,16.41
2022-12-31T17:58:18.462Z,16.43
2022-12-31T18:00:45.133Z,16.43
2022-12-31T18:03:11.850Z,16.28
2022-12-31T18:05:38.453Z,16.34
2022-12-31T18:08:05.174Z,16.37
2022-12-31T18:10:36.410Z,16.42
2022-12-31T18:13:05.687Z,16.49
2022-12-31T18:15:32.346Z,16.48
2022-12-31T18:17:58.893Z,16.42
2022-12-31T18:20:26.325Z,16.42
2022-12-31T18:22:52.970Z,16.38
2022-12-31T18:25:22.422Z,16.29
2022-12-31T18:27:52.216Z,16.28
2022-12-31T18:30:19.996Z,16.23
2022-12-31T18:32:46.856Z,16.33
2022-12-31T18:35:48.565Z,16.28
2022-12-31T18:38:03.697Z,16.31
2022-12-31T18:40:30.379Z,16.33
2022-12-31T18:43:02.695Z,16.29
2022-12-31T18:45:31.303Z,16.29
2022-12-31T18:47:57.835Z,16.14
2022-12-31T18:50:24.384Z,16.18
2022-12-31T18:52:50.865Z,16.14
2022-12-31T18:55:26.321Z,16.12
2022-12-31T18:57:53.985Z,16.17
2022-12-31T19:00:20.689Z,16.19
2022-12-31T19:02:47.183Z,16.17
2022-12-31T19:05:23.728Z,16.11
2022-12-31T19:07:50.172Z,16.14
2022-12-31T19:10:17.041Z,16.11
2022-12-31T19:12:44.400Z,16.09
2022-12-31T19:15:39.153Z,16.04
2022-12-31T19:18:15.807Z,15.98
2022-12-31T19:20:43.540Z,15.93
2022-12-31T19:23:24.009Z,15.86
2022-12-31T19:25:51.561Z,15.91
2022-12-31T19:28:24.204Z,15.82
2022-12-31T19:30:55.762Z,15.82
2022-12-31T19:33:22.524Z,15.82
2022-12-31T19:35:49.597Z,15.80
2022-12-31T19:38:24.341Z,15.75
2022-12-31T19:40:52.414Z,15.85
2022-12-31T19:43:21.373Z,15.82
2022-12-31T19:45:48.860Z,15.83
2022-12-31T19:48:19.047Z,15.76
2022-12-31T19:50:48.826Z,15.75
2022-12-31T19:53:19.647Z,15.74
2022-12-31T19:55:46.319Z,15.73
2022-12-31T19:58:19.279Z,15.72
2022-12-31T20:00:54.567Z,15.72
2022-12-31T20:03:23.888Z,15.77
2022-12-31T20:05:50.627Z,15.88
2022-12-31T20:08:20.249Z,15.85
2022-12-31T20:10:46.905Z,15.86
2022-12-31T20:13:13.310Z,15.82
2022-12-31T20:15:40.444Z,15.85
2022-12-31T20:18:06.947Z,15.75
2022-12-31T20:20:33.415Z,15.86
2022-12-31T20:22:59.942Z,15.79
2022-12-31T20:25:26.472Z,15.71
2022-12-31T20:27:54.688Z,15.73
2022-12-31T20:30:22.954Z,15.76
2022-12-31T20:32:52.104Z,15.79
2022-12-31T20:35:19.645Z,15.79
2022-12-31T20:37:49.148Z,15.84
2022-12-31T20:40:18.527Z,15.85
2022-12-31T20:42:47.116Z,15.83
2022-12-31T20:45:13.710Z,15.89
2022-12-31T20:47:40.972Z,15.96
2022-12-31T20:50:12.194Z,15.93
2022-12-31T20:52:39.239Z,15.90
2022-12-31T20:55:06.207Z,15.95
2022-12-31T20:57:35.630Z,15.99
2022-12-31T21:00:06.614Z,16.00
2022-12-31T21:02:42.284Z,16.05
2022-12-31T21:05:09.987Z,16.01
2022-12-31T21:07:36.595Z,16.05
2022-12-31T21:10:03.544Z,16.08
2022-12-31T21:12:45.571Z,16.06
2022-12-31T21:15:13.708Z,16.10
2022-12-31T21:17:42.093Z,16.14
2022-12-31T21:20:14.717Z,16.19
2022-12-31T21:22:41.207Z,16.22
2022-12-31T21:25:07.893Z,16.16
2022-12-31T21:27:35.825Z,16.14
2022-12-31T21:30:18.440Z,16.19
2022-12-31T21:32:45.698Z,16.18
2022-12-31T21:35:42.324Z,16.15
2022-12-31T21:38:07.578Z,16.15
2022-12-31T21:40:34.230Z,16.14
2022-12-31T21:43:00.782Z,16.17
2022-12-31T21:45:27.234Z,16.18
2022-12-31T21:48:12.196Z,16.15
2022-12-31T21:50:38.581Z,16.15
2022-12-31T21:53:04.982Z,16.11
2022-12-31T21:55:50.129Z,16.08
2022-12-31T21:58:26.503Z,15.99
2022-12-31T22:01:13.741Z,15.97
2022-12-31T22:03:40.886Z,16.03
2022-12-31T22:06:14.309Z,16.04
2022-12-31T22:08:45.560Z,16.02
2022-12-31T22:11:13.156Z,16.00
2022-12-31T22:13:40.095Z,15.99
2022-12-31T22:16:07.745Z,16.14
2022-12-31T22:18:38.714Z,15.98
2022-12-31T22:21:18.294Z,16.11
2022-12-31T22:23:47.039Z,16.04
2022-12-31T22:26:15.649Z,15.98
2022-12-31T22:28:43.832Z,16.02
2022-12-31T22:31:21.114Z,15.96
2022-12-31T22:33:48.175Z,15.99
2022-12-31T22:36:17.950Z,15.97
2022-12-31T22:38:48.509Z,15.95
2022-12-31T22:41:18.474Z,15.90
2022-12-31T22:43:57.197Z,15.91
2022-12-31T22:46:28.493Z,15.87
2022-12-31T22:48:58.307Z,15.81
2022-12-31T22:51:25.690Z,15.76
2022-12-31T22:53:55.974Z,15.87
2022-12-31T22:56:22.460Z,15.86
2022-12-31T22:58:49.166Z,15.90
2022-12-31T23:01:19.653Z,15.92
2022-12-31T23:03:48.252Z,15.89
2022-12-31T23:06:15.375Z,15.78
2022-12-31T23:09:02.115Z,15.78
2022-12-31T23:11:29.192Z,15.83
2022-12-31T23:14:13.978Z,15.89
2022-12-31T23:16:59.264Z,15.92
2022-12-31T23:20:04.252Z,15.88
2022-12-31T23:22:49.100Z,15.89
2022-12-31T23:25:15.695Z,15.87
2022-12-31T23:27:42.207Z,15.80
2022-12-31T23:30:09.142Z,15.77
2022-12-31T23:32:35.613Z,15.78
2022-12-31T23:35:07.807Z,15.68
2022-12-31T23:37:36.309Z,15.79
2022-12-31T23:40:02.734Z,15.70
2022-12-31T23:42:29.161Z,15.72
2022-12-31T23:44:55.559Z,15.77
2022-12-31T23:47:22.030Z,15.78
2022-12-31T23:49:48.518Z,15.73
2022-12-31T23:52:14.973Z,15.64
2022-12-31T23:54:41.482Z,15.64
2022-12-31T23:57:08.104Z,15.64
2022-12-31T23:59:34.549Z,15.73
